Nearby METAR Reports

 

KSJC - San Jose, California, USA
Distance from station: NE 14km
Updated: 2020-10-23 19:53
Few Clouds
Few Clouds
 Wind from NW
Wind: NW 11 km/h
Temperature: 17°C
Dew Point: 11°C
Humidity: 68%
Barometer: 1015.2 hPa
Clouds: Few Clouds
Visibility: 16 km
Cloud details: Few Clouds 2438 m
2020/10/24 02:53 KSJC 240253Z 31006KT 10SM FEW080 17/11 A2998 RMK AO2 SLP151 T01670111 53012
KNUQ - Moffett Nas/Mtn, California, USA
Distance from station: N 14km
Updated: 2020-10-23 06:55
NOT Current
Overcast
Overcast
 Wind from calm
Wind: Calm
Temperature: 14°C
Dew Point: 11°C
Humidity: 82%
Barometer: 1014.2 hPa
Clouds: Overcast
Visibility: 16 km
Cloud details: Overcast 488 m
2020/10/23 13:55 KNUQ 231355Z AUTO 00000KT 10SM OVC016 14/11 A2995 RMK AO2
 
KPAO - Palo Alto, California, USA
Distance from station: NNW 23km
Updated: 2020-10-23 18:47
Clear
Clear
 Wind from NNW
Wind: NNW 19 km/h
Temperature: 37°C
Dew Point: 13°C
Humidity: 24%
Barometer: 1014.9 hPa
Clouds: Clear
Visibility: 16 km
2020/10/24 01:47 KPAO 240147Z 34010KT 10SM SKC 37/13 A2997
KRHV - San Jose/Reid, California, USA
Distance from station: ENE 19km
Updated: 2020-10-23 19:50
Clear
Clear
 Wind from varies
Wind: varies 7 km/h
Temperature: 17°C
Dew Point: 12°C
Humidity: 73%
Barometer: 1015.2 hPa
Clouds: Clear
Visibility: 16 km
2020/10/24 02:50 KRHV 240250Z VRB04KT 10SM SKC 17/12 A2998
 
KOAK - Oakland, California, USA
Distance from station: NNW 50km
Updated: 2020-10-23 19:53
Clear
Clear
 Wind from NW
Wind: NW 11 km/h
Temperature: 17°C
Dew Point: 12°C
Humidity: 73%
Barometer: 1015.6 hPa
Clouds: Clear
Visibility: 16 km
2020/10/24 02:53 KOAK 240253Z 32006KT 10SM CLR 17/12 A2999 RMK AO2 SLP156 T01670117 51010
KSQL - San Carlos Airpo, California, USA
Distance from station: NW 34km
Updated: 2020-10-23 18:47
Clear
Clear
 Wind from WNW
Wind: WNW 15 km/h
Temperature: 18°C
Dew Point: 12°C
Humidity: 68%
Barometer: 1014.9 hPa
Clouds: Clear
Visibility: 16 km
2020/10/24 01:47 KSQL 240147Z 30008KT 10SM SKC 18/12 A2997
 
KSFO - San Francisco, California, USA
Distance from station: NW 49km
Updated: 2020-10-23 19:56
Clear
Clear
 Wind from WNW
Wind: WNW 22 km/h
Temperature: 15°C
Dew Point: 11°C
Humidity: 77%
Barometer: 1015.2 hPa
Clouds: Clear
Visibility: 16 km
2020/10/24 02:56 KSFO 240256Z 29012KT 10SM CLR 15/11 A2998 RMK AO2 SLP150 T01500111 51008
KE16 - San Martin, California, USA
Distance from station: ESE 43km
Updated: 2020-10-23 19:55
Partly cloudy
Partly cloudy
 Wind from calm
Wind: Calm
Temperature: 17°C
Dew Point: 10°C
Humidity: 64%
Barometer: 1015.9 hPa
Clouds: Partly cloudy
Visibility: 16 km
Cloud details: Few Clouds 671 m
Partly cloudy 1433 m
2020/10/24 02:55 KE16 240255Z AUTO 00000KT 10SM FEW022 SCT047 17/10 A3000 RMK AO2 PWINO PNO
 
KWVI - Watsonville, California, USA
Distance from station: SSE 44km
Updated: 2020-10-23 19:53
Clear
Clear
 Wind from calm
Wind: Calm
Temperature: 16°C
Dew Point: 12°C
Humidity: 77%
Barometer: 1015.6 hPa
Clouds: Clear
Visibility: 16 km
2020/10/24 02:53 KWVI 240253Z AUTO 00000KT 10SM CLR 16/12 A2999 RMK AO2 SLP154 T01560122 53008
KHAF - Half Moon Bay, California, USA
Distance from station: WNW 50km
Updated: 2020-10-23 19:55
Mist, Mostly cloudy
Mist, Mostly cloudy
 Wind from calm
Wind: Calm
Temperature: 12°C
Dew Point: 10°C
Humidity: 88%
Barometer: 1015.9 hPa
Summary: Mist
Clouds: Mostly cloudy
Visibility: 10 km
Cloud details: Mostly cloudy 61 m
2020/10/24 02:55 KHAF 240255Z AUTO 00000KT 6SM BR BKN002 12/10 A3000 RMK AO2
 
KHWD - Hayward, California, USA
Distance from station: N 44km
Updated: 2020-10-23 19:54
Clear
Clear
 Wind from NW
Wind: NW 9 km/h
Temperature: 16°C
Dew Point: 11°C
Humidity: 72%
Barometer: 1015.2 hPa
Clouds: Clear
Visibility: 16 km
2020/10/24 02:54 KHWD 240254Z 32005KT 10SM CLR 16/11 A2998 RMK AO2 SLP162 T01610111 51011
KLVK - Livermore, California, USA
Distance from station: NNE 51km
Updated: 2020-10-23 19:53
Clear
Clear
 Wind from WNW
Wind: WNW 19 km/h
Temperature: 16°C
Dew Point: 10°C
Humidity: 68%
Barometer: 1014.9 hPa
Clouds: Clear
Visibility: 16 km
2020/10/24 02:53 KLVK 240253Z 29010KT 10SM CLR 16/10 A2997 RMK AO2 SLP146 T01610100 53014 $